Time;durP1;ratioP1;P1;durP2;ratioP2;P2;SDS_P1;SDS_P2;PMS_P1;PMS_P2;Temp;Humidity;BMP_temperature;BMP_pressure;BME280_temperature;BME280_humidity;BME280_pressure;Samples;Min_cycle;Max_cycle;Signal;HPM_P1;HPM_P2
2021/03/20 00:00:23;;;;;;;7.57;4.80;;;;;;;0.16;58.67;102288.88;689746;28;14773;-60
2021/03/20 00:00:49;;;;;;;3.58;3.20;;;;;;;0.16;58.46;102291.53;684616;28;137762;-62
2021/03/20 00:01:12;;;;;;;4.30;3.13;;;;;;;0.17;58.50;102293.22;685272;28;156054;-61
2021/03/20 00:01:35;;;;;;;4.15;3.28;;;;;;;0.16;58.54;102287.06;687168;28;90331;-62
2021/03/20 00:01:57;;;;;;;3.63;2.67;;;;;;;0.18;58.20;102292.31;688942;28;43768;-62
2021/03/20 00:02:18;;;;;;;3.13;2.58;;;;;;;0.18;58.25;102290.50;688925;28;45198;-62
2021/03/20 00:02:39;;;;;;;2.60;2.40;;;;;;;0.18;58.28;102292.31;689614;28;22369;-62
2021/03/20 00:03:00;;;;;;;3.03;2.55;;;;;;;0.18;58.23;102292.31;689525;28;21357;-62
2021/03/20 00:03:21;;;;;;;3.25;2.70;;;;;;;0.14;58.25;102288.06;691330;28;858;-62
2021/03/20 00:03:43;;;;;;;2.72;2.53;;;;;;;0.17;58.06;102291.47;689464;28;22371;-63
2021/03/20 00:04:05;;;;;;;2.80;2.38;;;;;;;0.15;57.98;102290.66;688494;28;46275;-63
2021/03/20 00:04:26;;;;;;;2.70;2.38;;;;;;;0.17;58.23;102298.56;689098;28;45265;-62
2021/03/20 00:04:48;;;;;;;2.95;2.40;;;;;;;0.17;58.13;102295.88;689690;28;22381;-62
2021/03/20 00:05:10;;;;;;;3.75;2.40;;;;;;;0.17;58.12;102299.44;688991;28;46377;-62
2021/03/20 00:05:32;;;;;;;2.40;2.20;;;;;;;0.17;58.09;102295.88;688183;28;43251;-62
2021/03/20 00:05:53;;;;;;;2.75;2.33;;;;;;;0.16;58.01;102297.69;688493;28;41921;-63
2021/03/20 00:06:17;;;;;;;3.33;2.40;;;;;;;0.15;57.97;102295.97;690197;28;8150;-63
2021/03/20 00:06:40;;;;;;;2.60;2.40;;;;;;;0.16;57.97;102303.00;687164;28;92280;-63
2021/03/20 00:07:04;;;;;;;2.40;2.20;;;;;;;0.16;58.19;102304.81;687734;28;65154;-63
2021/03/20 00:07:25;;;;;;;2.70;2.40;;;;;;;0.15;58.00;102301.28;686874;28;90474;-63
2021/03/20 00:07:46;;;;;;;2.35;2.15;;;;;;;0.15;58.03;102303.94;689234;28;22402;-63
2021/03/20 00:08:09;;;;;;;2.58;2.20;;;;;;;0.15;58.06;102303.94;689907;28;21529;-64
2021/03/20 00:08:31;;;;;;;3.50;2.35;;;;;;;0.15;58.14;102303.94;688150;28;70166;-61
2021/03/20 00:08:53;;;;;;;4.35;2.25;;;;;;;0.15;57.92;102306.59;689307;28;28604;-62
2021/03/20 00:09:16;;;;;;;2.28;2.08;;;;;;;0.15;58.03;102305.75;688111;28;46150;-61
2021/03/20 00:09:37;;;;;;;2.50;2.30;;;;;;;0.16;57.97;102305.66;686605;28;79061;-62
2021/03/20 00:09:58;;;;;;;2.60;2.10;;;;;;;0.17;57.94;102309.19;689799;28;23532;-62
2021/03/20 00:10:21;;;;;;;2.90;2.13;;;;;;;0.16;57.98;102307.47;689748;28;22543;-62
2021/03/20 00:10:43;;;;;;;4.55;2.47;;;;;;;0.16;57.92;102305.66;685222;28;46325;-60
2021/03/20 00:11:05;;;;;;;3.05;2.33;;;;;;;0.18;58.00;102300.28;686978;28;41071;-62
2021/03/20 00:11:27;;;;;;;2.40;2.20;;;;;;;0.18;57.82;102300.28;685521;28;46298;-63
2021/03/20 00:11:48;;;;;;;3.05;2.70;;;;;;;0.17;57.81;102298.56;686225;28;37665;-63
2021/03/20 00:12:10;;;;;;;2.45;2.25;;;;;;;0.18;57.90;102302.94;686419;28;39915;-62
2021/03/20 00:12:32;;;;;;;2.22;2.08;;;;;;;0.18;57.91;102302.94;684914;28;21829;-62
2021/03/20 00:12:53;;;;;;;2.53;2.33;;;;;;;0.16;57.84;102295.03;685811;28;46554;-62
2021/03/20 00:13:17;;;;;;;2.83;2.33;;;;;;;0.17;57.69;102303.88;686180;28;44431;-63
2021/03/20 00:13:39;;;;;;;3.08;2.40;;;;;;;0.16;57.88;102304.81;684940;28;67516;-63
2021/03/20 00:14:00;;;;;;;2.50;2.30;;;;;;;0.16;57.81;102308.31;686414;28;35274;-63
2021/03/20 00:14:23;;;;;;;2.80;2.30;;;;;;;0.14;57.72;102298.69;688080;28;12648;-62
2021/03/20 00:14:44;;;;;;;2.30;2.10;;;;;;;0.15;57.70;102308.41;688352;28;69405;-62
2021/03/20 00:15:07;;;;;;;3.13;2.30;;;;;;;0.14;57.72;102299.56;689913;28;19461;-65
2021/03/20 00:15:29;;;;;;;2.45;2.25;;;;;;;0.15;57.60;102303.09;689913;28;15339;-62
2021/03/20 00:15:52;;;;;;;2.50;2.30;;;;;;;0.15;57.71;102303.09;688444;28;46302;-62
2021/03/20 00:16:14;;;;;;;2.47;2.25;;;;;;;0.15;57.80;102303.94;688138;28;52411;-63
2021/03/20 00:16:35;;;;;;;2.60;2.33;;;;;;;0.15;57.77;102300.44;689219;28;38136;-65
2021/03/20 00:16:57;;;;;;;2.67;2.30;;;;;;;0.16;57.84;102305.66;689376;28;19452;-61
2021/03/20 00:17:18;;;;;;;2.83;2.20;;;;;;;0.17;57.97;102298.56;690034;28;14362;-61
2021/03/20 00:17:39;;;;;;;2.20;2.00;;;;;;;0.17;57.73;102302.09;689171;28;23554;-66
2021/03/20 00:18:00;;;;;;;3.40;2.00;;;;;;;0.17;57.83;102306.53;689480;28;23556;-62
2021/03/20 00:18:23;;;;;;;3.13;2.35;;;;;;;0.16;57.62;102312.78;689621;28;29865;-65
2021/03/20 00:18:44;;;;;;;2.58;2.22;;;;;;;0.16;57.71;102308.31;687986;28;68644;-65
2021/03/20 00:19:06;;;;;;;2.33;2.10;;;;;;;0.15;57.56;102313.72;689687;28;23454;-63
2021/03/20 00:19:27;;;;;;;2.13;2.03;;;;;;;0.13;57.55;102300.50;682724;28;47044;-65
2021/03/20 00:19:49;;;;;;;2.20;2.00;;;;;;;0.14;57.58;102304.88;683658;28;23094;-62
2021/03/20 00:20:14;;;;;;;2.55;2.25;;;;;;;0.13;57.67;102308.47;683925;28;22579;-62
2021/03/20 00:20:37;;;;;;;2.58;2.38;;;;;;;0.14;57.72;102309.31;684192;28;91105;-62
2021/03/20 00:20:58;;;;;;;2.60;2.35;;;;;;;0.13;57.87;102313.78;683081;28;92390;-61
2021/03/20 00:21:20;;;;;;;2.58;2.00;;;;;;;0.11;57.62;102304.16;688781;28;23449;-61
2021/03/20 00:21:41;;;;;;;2.35;2.15;;;;;;;0.09;57.91;102304.22;685077;28;22415;-62
2021/03/20 00:22:02;;;;;;;2.03;1.90;;;;;;;0.14;57.95;102310.19;684790;28;46327;-60
2021/03/20 00:22:23;;;;;;;2.45;2.05;;;;;;;0.13;57.79;102308.47;684342;28;22286;-62
2021/03/20 00:22:46;;;;;;;2.35;2.00;;;;;;;0.13;57.75;102305.81;683615;28;1704;-60
2021/03/20 00:23:07;;;;;;;3.45;2.15;;;;;;;0.12;57.81;102297.91;683678;28;21539;-62
2021/03/20 00:23:28;;;;;;;3.38;2.17;;;;;;;0.13;57.93;102299.66;682896;28;46376;-62
2021/03/20 00:23:50;;;;;;;2.33;2.13;;;;;;;0.13;57.77;102304.97;686767;28;17811;-64
2021/03/20 00:24:11;;;;;;;2.60;2.40;;;;;;;0.12;57.82;102298.75;686725;28;22494;-62
2021/03/20 00:24:32;;;;;;;2.22;2.03;;;;;;;0.14;57.83;102301.34;685896;28;40232;-63
2021/03/20 00:24:53;;;;;;;2.30;2.10;;;;;;;0.14;57.89;102304.00;686877;28;23435;-64
2021/03/20 00:25:15;;;;;;;2.50;2.30;;;;;;;0.15;57.77;102297.78;690850;28;3976;-62
2021/03/20 00:25:36;;;;;;;2.47;2.17;;;;;;;0.14;57.79;102296.91;689341;28;22406;-61
2021/03/20 00:25:58;;;;;;;2.30;2.10;;;;;;;0.17;57.74;102295.88;689356;28;17593;-62
2021/03/20 00:26:19;;;;;;;3.22;2.13;;;;;;;0.15;57.87;102301.28;685738;28;44380;-62
2021/03/20 00:26:40;;;;;;;2.85;2.22;;;;;;;0.14;57.63;102301.34;686888;28;21663;-62
2021/03/20 00:27:02;;;;;;;2.70;2.17;;;;;;;0.15;57.83;102309.25;686792;28;16215;-62
2021/03/20 00:27:23;;;;;;;2.47;2.30;;;;;;;0.17;57.54;102302.09;685324;28;44490;-62
2021/03/20 00:27:45;;;;;;;2.25;2.05;;;;;;;0.18;57.69;102305.59;687147;28;22415;-62
2021/03/20 00:28:08;;;;;;;2.30;2.10;;;;;;;0.20;57.85;102308.19;687068;28;23470;-61
2021/03/20 00:28:29;;;;;;;2.38;2.22;;;;;;;0.20;57.86;102303.72;687287;28;68309;-62
2021/03/20 00:28:51;;;;;;;2.55;2.35;;;;;;;0.20;57.72;102301.06;688800;28;44396;-62
2021/03/20 00:29:12;;;;;;;2.42;2.22;;;;;;;0.23;57.82;102305.38;689197;28;37812;-61
2021/03/20 00:29:33;;;;;;;2.75;2.28;;;;;;;0.21;57.54;102294.81;689291;28;22410;-61
2021/03/20 00:29:58;;;;;;;2.42;2.22;;;;;;;0.22;57.46;102301.88;686364;28;38205;-62
2021/03/20 00:30:21;;;;;;;2.08;1.88;;;;;;;0.22;57.37;102303.66;686189;28;40222;-62
2021/03/20 00:30:42;;;;;;;3.30;2.05;;;;;;;0.18;57.37;102298.47;685755;28;45978;-63
2021/03/20 00:31:05;;;;;;;2.63;2.33;;;;;;;0.23;57.32;102308.91;682955;28;45755;-61
2021/03/20 00:31:27;;;;;;;2.15;2.00;;;;;;;0.23;57.32;102310.69;682632;28;69423;-61
2021/03/20 00:31:48;;;;;;;2.28;2.00;;;;;;;0.23;57.21;102308.03;685444;28;22199;-62
2021/03/20 00:32:09;;;;;;;2.45;2.25;;;;;;;0.21;57.51;102310.78;687289;28;10868;-62
2021/03/20 00:32:30;;;;;;;2.30;2.10;;;;;;;0.21;57.35;102310.78;686742;28;22556;-64
2021/03/20 00:32:51;;;;;;;2.50;2.10;;;;;;;0.20;57.41;102308.19;687240;28;22391;-60
2021/03/20 00:33:12;;;;;;;2.63;2.00;;;;;;;0.20;57.41;102311.69;689566;28;23422;-62
2021/03/20 00:33:33;;;;;;;1.88;1.77;;;;;;;0.19;57.35;102310.00;689682;28;22472;-62
2021/03/20 00:33:54;;;;;;;2.00;1.90;;;;;;;0.21;57.60;102304.59;689710;28;21561;-62
2021/03/20 00:34:17;;;;;;;2.20;2.00;;;;;;;0.21;57.47;102308.13;690060;28;16369;-59
2021/03/20 00:34:38;;;;;;;2.88;2.10;;;;;;;0.22;57.51;102306.31;687673;28;69105;-62
2021/03/20 00:34:59;;;;;;;3.00;2.20;;;;;;;0.20;57.38;102305.53;689512;28;22271;-62
2021/03/20 00:35:22;;;;;;;2.30;2.10;;;;;;;0.21;57.40;102302.81;689707;28;21492;-64
2021/03/20 00:35:43;;;;;;;2.40;2.20;;;;;;;0.22;57.40;102303.66;687767;28;67515;-62
2021/03/20 00:36:06;;;;;;;2.40;2.20;;;;;;;0.21;57.36;102308.13;684590;28;19919;-62
2021/03/20 00:36:27;;;;;;;2.78;2.13;;;;;;;0.22;57.36;102304.53;684006;28;69451;-62
2021/03/20 00:36:48;;;;;;;2.00;1.90;;;;;;;0.23;57.46;102300.91;686304;28;834;-62
2021/03/20 00:37:12;;;;;;;2.08;1.98;;;;;;;0.23;57.25;102305.38;686115;28;950;-61
2021/03/20 00:37:36;;;;;;;2.38;2.17;;;;;;;0.21;57.32;102302.81;683757;28;68306;-62
2021/03/20 00:37:59;;;;;;;2.10;1.90;;;;;;;0.21;57.24;102305.47;685034;28;92073;-60
2021/03/20 00:38:20;;;;;;;2.28;2.08;;;;;;;0.21;57.13;102308.13;690065;28;4682;-61
2021/03/20 00:38:42;;;;;;;2.30;1.95;;;;;;;0.21;57.15;102302.81;689626;28;22390;-61
2021/03/20 00:39:04;;;;;;;2.97;2.25;;;;;;;0.22;57.25;102309.84;689291;28;30594;-62
2021/03/20 00:39:25;;;;;;;2.35;2.17;;;;;;;0.16;57.21;102302.16;688067;28;40359;-62
2021/03/20 00:39:46;;;;;;;2.80;2.10;;;;;;;0.20;57.16;102306.38;689742;28;4435;-63
2021/03/20 00:40:12;;;;;;;2.60;2.40;;;;;;;0.20;57.00;102305.53;690056;28;1098;-61
2021/03/20 00:40:33;;;;;;;3.60;2.35;;;;;;;0.19;57.13;102299.38;685640;28;130644;-63
2021/03/20 00:40:56;;;;;;;2.97;2.20;;;;;;;0.20;57.18;102300.22;690166;28;1934;-62
2021/03/20 00:41:17;;;;;;;2.28;2.08;;;;;;;0.19;57.29;102302.03;687857;28;69227;-62
2021/03/20 00:41:38;;;;;;;2.30;2.10;;;;;;;0.20;57.15;102306.38;690141;28;1333;-62
2021/03/20 00:42:00;;;;;;;2.53;2.30;;;;;;;0.21;57.30;102308.13;689489;28;23549;-62
2021/03/20 00:42:21;;;;;;;2.33;2.10;;;;;;;0.21;57.27;102304.59;685505;28;47596;-62
2021/03/20 00:42:43;;;;;;;2.20;2.08;;;;;;;0.21;57.16;102308.13;685710;28;33851;-61
2021/03/20 00:43:04;;;;;;;2.03;1.90;;;;;;;0.20;57.16;102311.69;686125;28;23522;-62
2021/03/20 00:43:26;;;;;;;1.90;1.80;;;;;;;0.21;57.36;102312.56;686690;28;22533;-61
2021/03/20 00:43:48;;;;;;;2.33;2.00;;;;;;;0.21;57.13;102318.75;686799;28;13973;-63
2021/03/20 00:44:09;;;;;;;2.30;2.00;;;;;;;0.19;57.13;102317.97;689142;28;35046;-62
2021/03/20 00:44:30;;;;;;;3.15;2.00;;;;;;;0.18;57.12;102308.25;692478;28;9470;-62
2021/03/20 00:44:51;;;;;;;3.20;2.03;;;;;;;0.18;57.13;102317.09;693126;28;921;-62
2021/03/20 00:45:14;;;;;;;3.00;2.20;;;;;;;0.18;57.18;102317.09;691799;28;22648;-61
2021/03/20 00:45:36;;;;;;;2.20;2.00;;;;;;;0.17;57.09;102312.72;689581;28;92452;-61
2021/03/20 00:45:57;;;;;;;2.38;2.17;;;;;;;0.16;57.07;102320.75;692348;28;894;-62
2021/03/20 00:46:19;;;;;;;2.78;2.40;;;;;;;0.17;57.02;102319.81;690526;28;1190;-62
2021/03/20 00:46:40;;;;;;;2.47;2.20;;;;;;;0.15;57.01;102319.03;686625;28;19491;-62
2021/03/20 00:47:02;;;;;;;2.95;2.40;;;;;;;0.16;57.07;102315.44;686388;28;11888;-60
2021/03/20 00:47:23;;;;;;;3.47;2.13;;;;;;;0.15;57.00;102313.72;685741;28;45557;-62
2021/03/20 00:47:44;;;;;;;2.95;1.90;;;;;;;0.14;57.47;102309.31;686279;28;19542;-61
2021/03/20 00:48:08;;;;;;;2.05;1.85;;;;;;;0.13;57.18;102311.13;686588;28;23817;-62
2021/03/20 00:48:36;;;;;;;2.65;2.25;;;;;;;0.14;57.31;102311.97;688802;28;61308;-62
2021/03/20 00:48:57;;;;;;;2.33;2.13;;;;;;;0.12;57.31;102303.22;689884;28;85856;-61
2021/03/20 00:49:19;;;;;;;2.22;2.13;;;;;;;0.13;57.18;102312.94;692047;28;21818;-60
2021/03/20 00:49:40;;;;;;;2.20;2.10;;;;;;;0.13;57.21;102312.94;689163;28;15321;-60
2021/03/20 00:50:03;;;;;;;2.17;2.00;;;;;;;0.15;57.22;102311.06;684289;28;60924;-60
2021/03/20 00:50:27;;;;;;;3.13;2.13;;;;;;;0.12;57.43;102308.53;680260;28;67401;-63
2021/03/20 00:50:48;;;;;;;2.90;2.35;;;;;;;0.11;57.36;102302.38;676350;29;69451;-59
2021/03/20 00:51:15;;;;;;;2.40;2.20;;;;;;;0.12;57.25;102304.06;677283;29;61861;-63
2021/03/20 00:51:36;;;;;;;3.22;2.33;;;;;;;0.11;57.21;102307.69;680625;29;21553;-61
2021/03/20 00:51:58;;;;;;;2.80;2.15;;;;;;;0.12;57.06;102311.19;681320;28;42535;-58
2021/03/20 00:52:19;;;;;;;2.33;2.03;;;;;;;0.11;57.06;102301.50;684747;28;23537;-61
2021/03/20 00:52:40;;;;;;;1.90;1.80;;;;;;;0.11;57.20;102305.03;686512;28;43838;-60
2021/03/20 00:53:01;;;;;;;1.90;1.80;;;;;;;0.11;56.97;102309.47;688910;28;15729;-61
2021/03/20 00:53:23;;;;;;;2.33;2.17;;;;;;;0.09;57.13;102298.06;689272;28;22466;-63
2021/03/20 00:53:45;;;;;;;2.88;2.17;;;;;;;0.10;57.20;102307.75;688325;28;46342;-64
2021/03/20 00:54:06;;;;;;;3.42;2.20;;;;;;;0.10;56.97;102310.41;690105;28;19939;-62
2021/03/20 00:54:27;;;;;;;2.88;2.20;;;;;;;0.09;57.07;102316.66;690046;28;14236;-62
2021/03/20 00:54:48;;;;;;;2.60;1.98;;;;;;;0.06;57.27;102300.84;689164;28;38175;-62
2021/03/20 00:55:10;;;;;;;2.25;2.08;;;;;;;0.08;57.15;102301.63;689361;28;21220;-62
2021/03/20 00:55:31;;;;;;;3.20;1.92;;;;;;;0.07;57.22;102306.09;688140;28;45142;-62
2021/03/20 00:55:53;;;;;;;2.25;2.00;;;;;;;0.08;57.23;102307.81;686743;28;1027;-61
2021/03/20 00:56:14;;;;;;;2.92;2.30;;;;;;;0.07;57.22;102307.91;682929;28;44384;-62
2021/03/20 00:56:35;;;;;;;2.42;2.22;;;;;;;0.08;57.22;102312.25;684064;28;23415;-61
2021/03/20 00:56:57;;;;;;;2.75;2.20;;;;;;;0.08;57.23;102306.94;683851;28;23339;-62
2021/03/20 00:57:18;;;;;;;2.15;2.05;;;;;;;0.07;57.24;102305.25;683967;28;21352;-62
2021/03/20 00:57:39;;;;;;;2.78;2.30;;;;;;;0.08;57.11;102306.94;684206;28;23500;-62
2021/03/20 00:58:01;;;;;;;3.25;2.30;;;;;;;0.09;56.89;102314.00;686307;28;46319;-62
2021/03/20 00:58:24;;;;;;;3.08;2.10;;;;;;;0.09;57.13;102303.38;689261;28;22422;-63
2021/03/20 00:58:45;;;;;;;2.22;2.03;;;;;;;0.08;57.25;102306.94;687958;28;69553;-61
2021/03/20 00:59:06;;;;;;;2.00;1.90;;;;;;;0.08;57.31;102306.94;689598;28;21423;-62
2021/03/20 00:59:27;;;;;;;2.58;1.90;;;;;;;0.08;57.16;102317.56;688842;28;22479;-59
2021/03/20 00:59:49;;;;;;;2.63;2.03;;;;;;;0.06;57.33;102309.66;688371;28;45843;-62
2021/03/20 01:00:13;;;;;;;2.25;2.15;;;;;;;0.07;57.26;102319.38;689580;28;22403;-61
2021/03/20 01:00:34;;;;;;;2.47;2.30;;;;;;;0.06;56.97;102314.97;689774;28;14104;-62
2021/03/20 01:00:59;;;;;;;2.38;2.17;;;;;;;0.07;57.20;102318.53;689566;28;23474;-61
2021/03/20 01:01:22;;;;;;;2.00;1.90;;;;;;;0.06;57.25;102316.78;686586;28;99550;-62
2021/03/20 01:01:43;;;;;;;2.83;2.00;;;;;;;0.04;57.45;102313.34;687812;28;68825;-59
2021/03/20 01:02:04;;;;;;;2.15;1.95;;;;;;;0.05;57.44;102313.28;688921;28;39086;-62
2021/03/20 01:02:25;;;;;;;2.80;1.90;;;;;;;0.05;57.43;102318.59;689744;28;23419;-62
2021/03/20 01:02:46;;;;;;;2.10;1.83;;;;;;;0.06;57.55;102320.28;689586;28;23482;-62
2021/03/20 01:03:08;;;;;;;3.25;1.83;;;;;;;0.07;57.44;102315.88;686444;28;22422;-61
2021/03/20 01:03:29;;;;;;;3.10;1.95;;;;;;;0.07;57.47;102315.88;687223;28;987;-59
2021/03/20 01:03:51;;;;;;;2.30;2.10;;;;;;;0.05;57.34;102318.59;683015;28;46355;-62
2021/03/20 01:04:12;;;;;;;2.35;2.15;;;;;;;0.07;57.29;102316.72;683794;28;16998;-62
2021/03/20 01:04:38;;;;;;;3.40;2.25;;;;;;;0.05;57.29;102309.75;684665;28;18157;-61
2021/03/20 01:04:59;;;;;;;3.40;2.00;;;;;;;0.06;57.27;102317.63;681004;28;135366;-62
2021/03/20 01:05:21;;;;;;;2.00;1.85;;;;;;;0.06;57.30;102314.97;687161;28;3239;-62
2021/03/20 01:05:42;;;;;;;5.03;2.10;;;;;;;0.06;57.18;102311.47;687288;28;22392;-62
2021/03/20 01:06:04;;;;;;;4.35;2.00;;;;;;;0.05;57.06;102307.09;688477;28;46343;-61
2021/03/20 01:06:27;;;;;;;3.13;2.10;;;;;;;0.03;57.32;102301.00;688729;28;45271;-62
2021/03/20 01:06:49;;;;;;;3.20;2.05;;;;;;;0.07;57.23;102305.25;687929;28;67528;-62
2021/03/20 01:07:10;;;;;;;1.98;1.80;;;;;;;0.05;57.30;102299.13;689657;28;22415;-62
2021/03/20 01:07:31;;;;;;;2.70;2.10;;;;;;;0.06;57.38;102296.38;688886;28;44538;-62
2021/03/20 01:07:55;;;;;;;3.45;2.08;;;;;;;0.08;57.50;102298.97;687330;28;882;-62
2021/03/20 01:08:16;;;;;;;2.30;1.90;;;;;;;0.05;57.34;102292.03;687613;28;19270;-62
2021/03/20 01:08:39;;;;;;;2.20;2.00;;;;;;;0.09;57.38;102303.38;686816;28;15148;-60
2021/03/20 01:09:01;;;;;;;2.20;2.00;;;;;;;0.10;57.53;102299.78;686560;28;21549;-62
2021/03/20 01:09:22;;;;;;;2.20;1.90;;;;;;;0.11;57.59;102301.50;687371;28;6602;-62
2021/03/20 01:09:43;;;;;;;2.13;1.80;;;;;;;0.10;57.63;102300.63;687585;28;23467;-62
2021/03/20 01:10:10;;;;;;;2.10;1.80;;;;;;;0.10;57.40;102295.31;688723;28;21527;-62
2021/03/20 01:10:31;;;;;;;2.70;2.13;;;;;;;0.12;57.48;102297.91;685531;28;136697;-60
2021/03/20 01:10:53;;;;;;;3.50;2.05;;;;;;;0.11;57.39;102297.06;689414;28;22437;-62
2021/03/20 01:11:15;;;;;;;2.03;1.92;;;;;;;0.10;57.12;102294.47;688508;28;46337;-62
2021/03/20 01:11:36;;;;;;;2.40;2.08;;;;;;;0.10;57.51;102294.47;688446;28;46376;-61
2021/03/20 01:11:57;;;;;;;2.47;1.60;;;;;;;0.11;57.31;102301.50;689949;28;14089;-62
2021/03/20 01:12:18;;;;;;;2.42;1.83;;;;;;;0.12;57.47;102297.91;689285;28;22403;-61
2021/03/20 01:12:40;;;;;;;2.20;2.00;;;;;;;0.12;57.49;102297.91;689559;28;20905;-61
2021/03/20 01:13:01;;;;;;;2.05;1.70;;;;;;;0.12;57.41;102292.59;688637;28;46358;-62
2021/03/20 01:13:22;;;;;;;1.98;1.77;;;;;;;0.13;57.45;102303.16;689743;28;19854;-61
2021/03/20 01:13:44;;;;;;;2.28;1.90;;;;;;;0.13;57.30;102308.47;689904;28;901;-62
2021/03/20 01:14:06;;;;;;;2.60;2.00;;;;;;;0.12;57.18;102304.06;689330;28;21556;-62
2021/03/20 01:14:27;;;;;;;2.00;1.90;;;;;;;0.11;57.13;102305.03;688430;28;46338;-58
2021/03/20 01:14:48;;;;;;;2.20;2.00;;;;;;;0.11;57.29;102302.38;688544;28;22424;-61
2021/03/20 01:15:11;;;;;;;3.38;1.95;;;;;;;0.12;57.16;102297.91;690109;28;9796;-61
2021/03/20 01:15:36;;;;;;;2.28;1.80;;;;;;;0.13;57.28;102305.81;687165;28;69301;-62
2021/03/20 01:15:57;;;;;;;2.50;2.00;;;;;;;0.13;57.29;102304.97;685490;28;113506;-61
2021/03/20 01:16:18;;;;;;;2.10;1.90;;;;;;;0.15;57.24;102305.75;689170;28;22424;-62
2021/03/20 01:16:39;;;;;;;2.25;2.03;;;;;;;0.14;57.28;102298.69;689414;28;22389;-64
2021/03/20 01:17:01;;;;;;;1.88;1.75;;;;;;;0.14;57.31;102304.00;689809;28;4949;-61
2021/03/20 01:17:22;;;;;;;2.65;1.75;;;;;;;0.13;57.35;102304.97;688623;28;46381;-61
2021/03/20 01:17:44;;;;;;;2.15;1.92;;;;;;;0.14;57.40;102299.56;688684;28;22376;-61
2021/03/20 01:18:05;;;;;;;2.72;2.08;;;;;;;0.14;57.28;102306.66;688366;28;45282;-61
2021/03/20 01:18:26;;;;;;;2.63;1.83;;;;;;;0.14;57.06;102309.31;688538;28;21518;-60
2021/03/20 01:18:48;;;;;;;2.20;2.00;;;;;;;0.13;57.29;102308.47;689300;28;23303;-63
2021/03/20 01:19:09;;;;;;;2.53;2.13;;;;;;;0.14;57.23;102304.00;687568;28;1051;-62
2021/03/20 01:19:30;;;;;;;2.28;1.90;;;;;;;0.13;57.34;102305.81;684665;28;6961;-62
2021/03/20 01:19:52;;;;;;;2.95;2.00;;;;;;;0.13;57.18;102307.63;683963;28;8942;-62
2021/03/20 01:20:15;;;;;;;1.95;1.80;;;;;;;0.12;57.24;102303.22;683518;28;34009;-62
2021/03/20 01:20:36;;;;;;;1.65;1.63;;;;;;;0.14;57.26;102307.53;680797;28;67154;-61
2021/03/20 01:20:57;;;;;;;1.70;1.60;;;;;;;0.13;57.45;102304.97;683567;28;22411;-62
2021/03/20 01:21:19;;;;;;;2.80;1.95;;;;;;;0.11;57.40;102297.06;685097;28;44401;-63
2021/03/20 01:21:40;;;;;;;2.75;1.92;;;;;;;0.12;57.35;102297.91;687862;28;22490;-62
2021/03/20 01:22:02;;;;;;;1.92;1.73;;;;;;;0.14;57.37;102291.59;687590;28;40617;-61
2021/03/20 01:22:24;;;;;;;3.10;2.20;;;;;;;0.14;57.43;102294.25;689261;28;1020;-63
2021/03/20 01:22:46;;;;;;;2.03;1.85;;;;;;;0.16;57.35;102295.03;690138;28;1090;-62
2021/03/20 01:23:08;;;;;;;2.10;1.92;;;;;;;0.16;57.27;102291.53;689965;28;23462;-62
2021/03/20 01:23:29;;;;;;;3.85;2.08;;;;;;;0.17;57.39;102293.22;690115;28;902;-62
2021/03/20 01:23:50;;;;;;;2.58;1.90;;;;;;;0.19;57.27;102296.72;691514;28;22631;-62
2021/03/20 01:24:11;;;;;;;2.13;1.92;;;;;;;0.20;57.18;102300.22;691923;28;19460;-62
2021/03/20 01:24:32;;;;;;;2.13;1.85;;;;;;;0.20;57.21;102301.06;692076;28;13497;-61
2021/03/20 01:24:54;;;;;;;1.95;1.83;;;;;;;0.20;57.22;102298.41;691387;28;22398;-61
2021/03/20 01:25:15;;;;;;;1.90;1.80;;;;;;;0.20;57.21;102301.06;691644;28;33757;-62
2021/03/20 01:25:37;;;;;;;2.20;2.00;;;;;;;0.21;56.99;102300.16;691436;28;21528;-61
2021/03/20 01:25:58;;;;;;;2.33;2.00;;;;;;;0.21;57.14;102297.50;688939;28;31488;-61
2021/03/20 01:26:19;;;;;;;2.35;1.95;;;;;;;0.20;57.19;102298.41;689211;28;8428;-62
2021/03/20 01:26:41;;;;;;;2.00;1.80;;;;;;;0.22;57.30;102301.00;688634;28;46164;-61
2021/03/20 01:27:03;;;;;;;1.70;1.60;;;;;;;0.22;57.32;102295.69;686471;28;21202;-61
2021/03/20 01:27:24;;;;;;;1.73;1.63;;;;;;;0.23;57.42;102295.59;685710;28;46368;-62
2021/03/20 01:27:48;;;;;;;1.88;1.77;;;;;;;0.24;57.26;102293.84;686343;28;21329;-62
2021/03/20 01:28:10;;;;;;;2.15;1.70;;;;;;;0.23;57.21;102294.75;683134;28;113619;-61
2021/03/20 01:28:38;;;;;;;2.55;1.90;;;;;;;0.23;57.00;102292.09;686709;28;21678;-62
2021/03/20 01:28:59;;;;;;;3.00;2.03;;;;;;;0.24;57.00;102300.00;682798;28;138590;-62
2021/03/20 01:29:20;;;;;;;2.42;2.03;;;;;;;0.23;56.95;102298.25;688224;28;25659;-62
2021/03/20 01:29:41;;;;;;;3.47;2.20;;;;;;;0.23;56.93;102303.59;688982;28;22406;-62
2021/03/20 01:30:04;;;;;;;3.15;2.17;;;;;;;0.23;56.98;102300.91;689537;28;7342;-61
2021/03/20 01:30:28;;;;;;;2.00;1.90;;;;;;;0.23;56.75;102300.91;687957;28;69450;-62
2021/03/20 01:30:49;;;;;;;1.98;1.77;;;;;;;0.23;56.75;102298.25;688101;28;69391;-60
2021/03/20 01:31:12;;;;;;;2.03;1.70;;;;;;;0.19;56.67;102299.38;688701;28;44397;-59
2021/03/20 01:31:34;;;;;;;1.63;1.50;;;;;;;0.20;56.72;102301.06;689018;28;14705;-61
2021/03/20 01:31:55;;;;;;;2.40;1.77;;;;;;;0.21;56.76;102307.25;689444;28;21544;-62
2021/03/20 01:32:16;;;;;;;2.25;2.05;;;;;;;0.21;56.74;102302.81;689990;28;6903;-61
2021/03/20 01:32:38;;;;;;;2.30;2.10;;;;;;;0.21;56.76;102293.97;689288;28;21533;-62
2021/03/20 01:33:00;;;;;;;2.47;2.08;;;;;;;0.22;56.69;102298.34;689834;28;1424;-61
2021/03/20 01:33:46;;;;;;;2.00;1.80;;;;;;;0.23;56.76;102302.72;687292;28;110407;-63
2021/03/20 01:34:08;;;;;;;1.90;1.80;;;;;;;0.21;56.84;102304.59;690430;28;894;-59
2021/03/20 01:34:29;;;;;;;2.15;1.95;;;;;;;0.23;57.02;102305.38;689611;28;20296;-61
2021/03/20 01:34:50;;;;;;;1.90;1.80;;;;;;;0.22;57.07;102301.88;688888;28;39707;-62
2021/03/20 01:35:12;;;;;;;2.80;1.83;;;;;;;0.24;56.91;102301.81;689389;28;13763;-59
2021/03/20 01:35:34;;;;;;;1.90;1.80;;;;;;;0.24;56.98;102302.66;688936;28;38691;-62
2021/03/20 01:35:55;;;;;;;1.90;1.80;;;;;;;0.24;56.99;102301.81;689338;28;22962;-60
2021/03/20 01:36:17;;;;;;;3.17;2.20;;;;;;;0.25;57.04;102293.75;689073;28;36075;-62
2021/03/20 01:36:38;;;;;;;3.50;2.17;;;;;;;0.27;56.89;102299.00;689484;28;20148;-59
2021/03/20 01:36:59;;;;;;;2.88;1.90;;;;;;;0.27;56.81;102301.66;689682;28;22442;-62
2021/03/20 01:37:20;;;;;;;2.58;1.92;;;;;;;0.27;56.86;102299.00;689993;28;22412;-60
2021/03/20 01:37:41;;;;;;;1.90;1.77;;;;;;;0.26;56.91;102302.59;688196;28;37966;-62
2021/03/20 01:38:04;;;;;;;1.90;1.70;;;;;;;0.26;56.93;102297.28;689945;28;5382;-62
2021/03/20 01:38:26;;;;;;;1.90;1.67;;;;;;;0.28;56.92;102298.06;688113;28;67488;-60
2021/03/20 01:38:47;;;;;;;1.83;1.73;;;;;;;0.29;56.65;102299.78;688670;28;45345;-61
2021/03/20 01:39:09;;;;;;;1.80;1.70;;;;;;;0.28;56.62;102298.94;688829;28;21541;-62
2021/03/20 01:39:30;;;;;;;1.90;1.70;;;;;;;0.27;56.86;102293.69;689763;28;1087;-62
2021/03/20 01:39:56;;;;;;;1.85;1.73;;;;;;;0.28;56.81;102296.28;687453;28;60895;-61
2021/03/20 01:40:20;;;;;;;2.42;1.98;;;;;;;0.27;56.64;102299.84;686173;28;22402;-61
2021/03/20 01:40:45;;;;;;;2.10;1.80;;;;;;;0.28;56.66;102290.09;684851;28;77401;-60
2021/03/20 01:41:08;;;;;;;2.90;1.80;;;;;;;0.28;56.77;102298.06;683648;28;103483;-63
2021/03/20 01:41:29;;;;;;;1.95;1.80;;;;;;;0.27;56.72;102294.53;685816;28;35758;-61
2021/03/20 01:41:50;;;;;;;2.05;1.95;;;;;;;0.26;56.77;102292.81;684099;28;20830;-61
2021/03/20 01:42:13;;;;;;;2.95;1.90;;;;;;;0.28;56.88;102293.63;685806;28;13737;-60
2021/03/20 01:42:40;;;;;;;2.75;1.98;;;;;;;0.30;56.62;102294.41;685248;28;55369;-59
2021/03/20 01:43:01;;;;;;;2.30;2.10;;;;;;;0.30;56.75;102296.22;682576;28;133315;-60
2021/03/20 01:43:27;;;;;;;2.30;2.10;;;;;;;0.31;56.91;102296.13;686819;28;15061;-60
2021/03/20 01:43:49;;;;;;;2.05;1.92;;;;;;;0.32;56.72;102295.19;686193;28;84792;-58
2021/03/20 01:44:16;;;;;;;2.27;2.07;;;;;;;0.33;56.69;102296.91;689426;28;21215;-61
2021/03/20 01:44:37;;;;;;;2.53;1.90;;;;;;;0.34;56.77;102295.09;685738;28;129066;-61
2021/03/20 01:45:10;;;;;;;3.00;1.70;;;;;;;0.34;56.74;102295.09;689557;28;23471;-60
2021/03/20 01:45:33;;;;;;;2.25;1.80;;;;;;;0.32;56.85;102287.22;682334;28;160657;-61